Time;durP1;ratioP1;P1;durP2;ratioP2;P2;SDS_P1;SDS_P2;PMS_P1;PMS_P2;Temp;Humidity;BMP_temperature;BMP_pressure;BME280_temperature;BME280_humidity;BME280_pressure;Samples;Min_cycle;Max_cycle;Signal;HPM_P1;HPM_P2
2021/08/29 00:01:17;;;;;;;2.93;2.73;;;12.60;99.90;;;;;;488346;243;28330;-69
2021/08/29 00:03:19;;;;;;;3.37;2.53;;;12.60;99.90;;;;;;488404;242;28211;-70
2021/08/29 00:05:20;;;;;;;2.50;2.30;;;12.70;99.90;;;;;;488293;243;28205;-69
2021/08/29 00:07:21;;;;;;;2.53;2.37;;;12.70;99.90;;;;;;488324;242;28317;-69
2021/08/29 00:09:22;;;;;;;3.20;2.90;;;12.70;99.90;;;;;;488338;242;28783;-69
2021/08/29 00:11:24;;;;;;;2.87;2.67;;;12.60;99.90;;;;;;488375;243;28789;-69
2021/08/29 00:13:25;;;;;;;2.50;2.30;;;12.60;99.90;;;;;;488376;243;28876;-69
2021/08/29 00:15:26;;;;;;;2.80;2.60;;;12.60;99.90;;;;;;488346;243;28925;-69
2021/08/29 00:17:27;;;;;;;2.37;2.17;;;12.60;99.90;;;;;;488296;243;28438;-69
2021/08/29 00:19:29;;;;;;;2.83;2.63;;;12.60;99.90;;;;;;488386;242;28404;-69
2021/08/29 00:21:30;;;;;;;2.77;2.57;;;12.60;99.90;;;;;;488336;242;28406;-69
2021/08/29 00:23:32;;;;;;;2.37;2.17;;;12.70;99.90;;;;;;488375;242;28259;-68
2021/08/29 00:25:33;;;;;;;2.83;2.63;;;12.70;99.90;;;;;;488330;242;28328;-69
2021/08/29 00:27:35;;;;;;;2.80;2.30;;;;;;;;;;488442;242;28150;-69
2021/08/29 00:29:37;;;;;;;2.63;2.43;;;12.70;99.90;;;;;;488349;243;26988;-69
2021/08/29 00:31:38;;;;;;;2.70;2.50;;;12.70;99.90;;;;;;488324;242;28341;-69
2021/08/29 00:33:40;;;;;;;2.80;2.60;;;;;;;;;;488372;242;28092;-69
2021/08/29 00:35:41;;;;;;;2.80;2.60;;;12.60;99.90;;;;;;488337;243;26929;-69
2021/08/29 00:37:43;;;;;;;2.70;2.50;;;12.60;99.90;;;;;;488396;242;27973;-69
2021/08/29 00:39:44;;;;;;;2.57;2.30;;;12.60;99.90;;;;;;488335;242;28079;-69
2021/08/29 00:41:45;;;;;;;2.80;2.60;;;12.60;99.90;;;;;;488361;243;28217;-69
2021/08/29 00:43:46;;;;;;;2.73;2.53;;;12.50;99.90;;;;;;488408;242;28202;-69
2021/08/29 00:45:48;;;;;;;2.50;2.30;;;12.50;99.90;;;;;;488368;242;28240;-69
2021/08/29 00:47:49;;;;;;;2.50;2.30;;;12.50;99.90;;;;;;488299;242;28342;-70
2021/08/29 00:49:50;;;;;;;2.90;2.70;;;12.50;99.90;;;;;;488343;242;28299;-69
2021/08/29 00:51:51;;;;;;;2.77;2.33;;;12.50;99.90;;;;;;488322;242;28396;-69
2021/08/29 00:53:53;;;;;;;2.90;2.70;;;12.50;99.90;;;;;;488370;242;28917;-69
2021/08/29 00:55:54;;;;;;;2.83;2.63;;;12.60;99.90;;;;;;488401;242;28661;-70
2021/08/29 00:57:55;;;;;;;2.67;2.47;;;12.60;99.90;;;;;;488336;242;28011;-69
2021/08/29 00:59:56;;;;;;;2.80;2.60;;;12.60;99.90;;;;;;488330;243;28311;-69
2021/08/29 01:01:58;;;;;;;2.87;2.67;;;12.70;99.90;;;;;;488333;242;28217;-69
2021/08/29 01:03:59;;;;;;;2.87;2.67;;;12.70;99.90;;;;;;488384;242;28174;-69
2021/08/29 01:06:00;;;;;;;2.73;2.53;;;12.70;99.90;;;;;;488374;242;28317;-69
2021/08/29 01:08:02;;;;;;;2.67;2.50;;;12.80;99.90;;;;;;488330;242;28266;-69
2021/08/29 01:10:03;;;;;;;2.70;2.50;;;12.70;99.90;;;;;;488371;243;28220;-69
2021/08/29 01:12:04;;;;;;;2.50;2.30;;;12.80;99.90;;;;;;488426;242;28411;-69
2021/08/29 01:14:05;;;;;;;3.00;2.80;;;12.70;99.90;;;;;;488346;242;28430;-69
2021/08/29 01:16:06;;;;;;;3.10;2.40;;;12.70;99.90;;;;;;488361;242;28645;-68
2021/08/29 01:18:08;;;;;;;2.60;2.40;;;12.80;99.90;;;;;;488302;242;28495;-69
2021/08/29 01:20:09;;;;;;;3.40;2.60;;;12.80;99.90;;;;;;488417;242;28060;-69
2021/08/29 01:22:10;;;;;;;2.97;2.77;;;12.80;99.90;;;;;;488394;242;28291;-69
2021/08/29 01:24:12;;;;;;;2.60;2.40;;;12.80;99.90;;;;;;488326;242;28919;-69
2021/08/29 01:26:13;;;;;;;2.87;2.67;;;12.80;99.90;;;;;;488367;242;28738;-69
2021/08/29 01:28:14;;;;;;;4.00;2.50;;;12.80;99.90;;;;;;488321;242;29641;-69
2021/08/29 01:30:15;;;;;;;2.77;2.57;;;12.80;99.90;;;;;;488369;242;28750;-69
2021/08/29 01:32:17;;;;;;;2.90;2.70;;;12.80;99.90;;;;;;488402;242;28243;-69
2021/08/29 01:34:18;;;;;;;3.43;2.43;;;12.90;99.90;;;;;;488350;242;27987;-69
2021/08/29 01:36:19;;;;;;;3.27;3.00;;;12.90;99.90;;;;;;488346;242;28519;-69
2021/08/29 01:38:20;;;;;;;2.70;2.50;;;12.80;99.90;;;;;;488368;242;28295;-69
2021/08/29 01:40:23;;;;;;;3.30;3.00;;;12.80;99.90;;;;;;488367;242;28366;-69
2021/08/29 01:42:24;;;;;;;2.83;2.63;;;12.80;99.90;;;;;;488376;242;28534;-69
2021/08/29 01:44:25;;;;;;;3.17;2.80;;;12.90;99.90;;;;;;488299;243;28493;-69
2021/08/29 01:46:27;;;;;;;2.80;2.60;;;12.90;99.90;;;;;;488404;242;28645;-70
2021/08/29 01:48:28;;;;;;;2.87;2.67;;;12.90;99.90;;;;;;488407;242;29270;-69
2021/08/29 01:50:29;;;;;;;3.07;2.87;;;12.90;99.90;;;;;;488353;243;28887;-69
2021/08/29 01:52:30;;;;;;;2.97;2.77;;;12.90;99.90;;;;;;488398;242;28029;-69
2021/08/29 01:54:32;;;;;;;3.03;2.83;;;12.90;99.90;;;;;;488305;243;28711;-69
2021/08/29 01:56:33;;;;;;;3.40;3.10;;;12.90;99.90;;;;;;488423;242;28013;-69
2021/08/29 01:58:34;;;;;;;2.70;2.50;;;12.90;99.90;;;;;;488421;242;28514;-69
2021/08/29 02:00:35;;;;;;;2.80;2.60;;;12.90;99.90;;;;;;488349;242;28422;-69
2021/08/29 02:02:37;;;;;;;2.40;2.30;;;12.80;99.90;;;;;;488380;242;28074;-69
2021/08/29 02:04:38;;;;;;;2.93;2.73;;;12.90;99.90;;;;;;488316;242;28751;-68
2021/08/29 02:06:39;;;;;;;2.60;2.40;;;12.90;99.90;;;;;;488399;242;28722;-69
2021/08/29 02:08:40;;;;;;;2.90;2.70;;;12.90;99.90;;;;;;488420;242;28596;-69
2021/08/29 02:10:42;;;;;;;2.50;2.30;;;12.90;99.90;;;;;;488363;242;28400;-69
2021/08/29 02:12:43;;;;;;;2.80;2.60;;;12.90;99.90;;;;;;488372;242;28725;-69
2021/08/29 02:14:44;;;;;;;3.33;3.03;;;12.90;99.90;;;;;;488392;242;28063;-69
2021/08/29 02:16:45;;;;;;;3.17;2.97;;;13.00;99.90;;;;;;488394;242;28531;-69
2021/08/29 02:18:47;;;;;;;3.53;3.23;;;13.10;99.90;;;;;;488422;242;28826;-69
2021/08/29 02:20:48;;;;;;;3.17;2.87;;;13.10;99.90;;;;;;488357;242;28164;-69
2021/08/29 02:22:49;;;;;;;4.30;3.90;;;13.00;99.90;;;;;;488370;242;28110;-69
2021/08/29 02:24:50;;;;;;;4.00;3.33;;;13.10;99.90;;;;;;488325;242;27978;-69
2021/08/29 02:26:52;;;;;;;3.77;3.47;;;13.10;99.90;;;;;;488364;242;28817;-69
2021/08/29 02:28:53;;;;;;;3.63;3.33;;;13.10;99.90;;;;;;488384;242;28347;-69
2021/08/29 02:30:54;;;;;;;3.90;3.60;;;13.10;99.90;;;;;;488352;242;28745;-69
2021/08/29 02:32:55;;;;;;;3.20;3.00;;;13.10;99.90;;;;;;488377;242;28500;-69
2021/08/29 02:34:57;;;;;;;4.10;3.70;;;13.10;99.90;;;;;;488369;243;29919;-69
2021/08/29 02:36:58;;;;;;;3.90;3.50;;;13.10;99.90;;;;;;488389;242;28680;-69
2021/08/29 02:38:59;;;;;;;3.23;3.03;;;13.10;99.90;;;;;;488389;242;27968;-69
2021/08/29 02:41:00;;;;;;;3.70;3.40;;;13.10;99.90;;;;;;488277;242;28739;-69
2021/08/29 02:43:02;;;;;;;3.90;3.30;;;13.10;99.90;;;;;;488328;242;28448;-70
2021/08/29 02:45:03;;;;;;;4.47;4.07;;;13.10;99.90;;;;;;488408;242;28453;-69
2021/08/29 02:47:04;;;;;;;4.23;3.87;;;13.10;99.90;;;;;;488371;242;28151;-69
2021/08/29 02:49:05;;;;;;;3.50;3.20;;;13.10;99.90;;;;;;488381;242;28001;-69
2021/08/29 02:51:07;;;;;;;3.50;3.20;;;13.10;99.90;;;;;;488361;242;28713;-69
2021/08/29 02:53:08;;;;;;;6.43;4.77;;;13.10;99.90;;;;;;488299;242;28434;-69
2021/08/29 02:55:09;;;;;;;3.90;3.60;;;13.10;99.90;;;;;;488438;242;28698;-69
2021/08/29 02:57:11;;;;;;;4.27;3.87;;;13.10;99.90;;;;;;488304;243;28623;-69
2021/08/29 02:59:12;;;;;;;4.37;3.90;;;13.10;99.90;;;;;;488359;242;28563;-70
2021/08/29 03:01:13;;;;;;;4.53;4.13;;;13.10;99.90;;;;;;488308;242;28789;-69
2021/08/29 03:03:14;;;;;;;4.53;4.10;;;13.10;99.90;;;;;;488290;242;28810;-69
2021/08/29 03:05:15;;;;;;;4.93;4.53;;;13.10;99.90;;;;;;488412;242;28452;-69
2021/08/29 03:07:17;;;;;;;4.53;3.73;;;13.10;99.90;;;;;;488344;242;28449;-69
2021/08/29 03:09:18;;;;;;;4.67;4.27;;;13.10;99.90;;;;;;488370;242;28362;-69
2021/08/29 03:11:20;;;;;;;5.70;4.23;;;;;;;;;;488314;242;28542;-69
2021/08/29 03:13:22;;;;;;;4.10;3.73;;;13.10;99.90;;;;;;488362;243;26862;-69
2021/08/29 03:15:23;;;;;;;4.23;3.83;;;13.10;99.90;;;;;;488406;242;28283;-69
2021/08/29 03:17:24;;;;;;;4.43;4.03;;;13.10;99.90;;;;;;488349;243;28462;-70
2021/08/29 03:19:25;;;;;;;4.30;3.90;;;13.10;99.90;;;;;;488367;242;28206;-69
2021/08/29 03:21:27;;;;;;;5.10;3.90;;;13.10;99.90;;;;;;488409;243;28295;-69
2021/08/29 03:23:28;;;;;;;5.70;4.50;;;13.10;99.90;;;;;;488404;242;28218;-69
2021/08/29 03:25:29;;;;;;;4.47;4.03;;;13.10;99.90;;;;;;488399;242;28256;-69
2021/08/29 03:27:30;;;;;;;4.50;4.10;;;13.10;99.90;;;;;;488355;242;28438;-69
2021/08/29 03:29:32;;;;;;;4.50;4.10;;;13.10;99.90;;;;;;488348;242;28802;-69
2021/08/29 03:31:33;;;;;;;4.53;4.13;;;13.10;99.90;;;;;;488457;242;28728;-69
2021/08/29 03:33:34;;;;;;;4.27;3.97;;;13.20;99.90;;;;;;488405;242;28714;-69
2021/08/29 03:35:35;;;;;;;3.80;3.50;;;13.10;99.90;;;;;;488413;242;28786;-69
2021/08/29 03:37:37;;;;;;;6.20;5.60;;;13.10;99.90;;;;;;488373;242;29326;-69
2021/08/29 03:39:38;;;;;;;6.10;5.50;;;13.10;99.90;;;;;;488332;243;28736;-69
2021/08/29 03:41:40;;;;;;;6.13;5.53;;;13.10;99.90;;;;;;488351;242;28208;-69
2021/08/29 03:43:40;;;;;;;4.80;4.40;;;13.10;99.90;;;;;;488317;242;28823;-69
2021/08/29 03:45:42;;;;;;;4.43;4.07;;;13.20;99.90;;;;;;488393;242;28222;-69
2021/08/29 03:47:43;;;;;;;5.03;4.60;;;13.10;99.90;;;;;;488382;242;28574;-69
2021/08/29 03:49:44;;;;;;;5.00;4.60;;;13.10;99.90;;;;;;488299;242;28181;-69
2021/08/29 03:51:45;;;;;;;5.40;4.90;;;13.10;99.90;;;;;;488414;242;28410;-69
2021/08/29 03:53:47;;;;;;;5.47;4.97;;;13.10;99.90;;;;;;488424;242;28660;-69
2021/08/29 03:55:48;;;;;;;5.10;4.60;;;13.10;99.90;;;;;;488362;242;28570;-69
2021/08/29 03:57:50;;;;;;;8.60;5.03;;;13.10;99.90;;;;;;488363;243;28741;-69
2021/08/29 03:59:52;;;;;;;4.90;4.50;;;;;;;;;;488309;243;28674;-69
2021/08/29 04:01:54;;;;;;;5.90;5.30;;;13.10;99.90;;;;;;488407;243;26533;-69
2021/08/29 04:03:55;;;;;;;6.30;5.33;;;13.10;99.90;;;;;;488399;242;28755;-69
2021/08/29 04:05:57;;;;;;;5.40;5.00;;;13.10;99.90;;;;;;488348;243;28722;-69
2021/08/29 04:07:59;;;;;;;5.80;5.20;;;;;;;;;;488317;242;28728;-69
2021/08/29 04:10:00;;;;;;;5.17;4.67;;;13.10;99.90;;;;;;488362;243;26495;-69
2021/08/29 04:12:02;;;;;;;5.50;5.00;;;13.10;99.90;;;;;;488354;242;28475;-69
2021/08/29 04:14:03;;;;;;;6.30;5.27;;;13.10;99.90;;;;;;488360;242;28265;-70
2021/08/29 04:16:04;;;;;;;5.83;5.10;;;13.10;99.90;;;;;;488351;242;28732;-69
2021/08/29 04:18:05;;;;;;;5.70;5.20;;;13.10;99.90;;;;;;488420;242;28229;-69
2021/08/29 04:20:07;;;;;;;6.30;5.70;;;13.10;99.90;;;;;;488342;242;28613;-69
2021/08/29 04:22:08;;;;;;;6.40;5.63;;;13.10;99.90;;;;;;488312;242;28766;-69
2021/08/29 04:24:09;;;;;;;5.80;5.20;;;13.10;99.90;;;;;;488302;242;30488;-69
2021/08/29 04:26:10;;;;;;;6.47;5.87;;;13.10;99.90;;;;;;488353;243;28294;-69
2021/08/29 04:28:12;;;;;;;6.50;5.90;;;13.10;99.90;;;;;;488411;242;28077;-69
2021/08/29 04:30:13;;;;;;;5.63;5.13;;;13.10;99.90;;;;;;488371;242;28420;-68
2021/08/29 04:32:14;;;;;;;6.70;5.57;;;13.10;99.90;;;;;;488115;242;28023;-69
2021/08/29 04:34:15;;;;;;;7.50;6.57;;;13.10;99.90;;;;;;488328;242;28427;-69
2021/08/29 04:36:17;;;;;;;6.30;5.70;;;13.10;99.90;;;;;;488376;243;28098;-69
2021/08/29 04:38:18;;;;;;;7.33;6.20;;;13.10;99.90;;;;;;488394;241;28130;-69
2021/08/29 04:40:19;;;;;;;6.53;5.87;;;13.10;99.90;;;;;;488335;242;28463;-70
2021/08/29 04:42:22;;;;;;;9.23;6.93;;;;;;;;;;488277;243;29029;-69
2021/08/29 04:44:23;;;;;;;6.47;5.80;;;13.00;99.90;;;;;;488406;243;26564;-69
2021/08/29 04:46:24;;;;;;;7.27;6.50;;;13.10;99.90;;;;;;488327;242;28833;-69
2021/08/29 04:48:25;;;;;;;7.10;6.37;;;13.10;99.90;;;;;;488349;243;28231;-69
2021/08/29 04:50:27;;;;;;;7.23;6.53;;;13.10;99.90;;;;;;488382;242;28227;-69
2021/08/29 04:52:28;;;;;;;6.50;5.77;;;13.00;99.90;;;;;;488340;242;28375;-69
2021/08/29 04:54:29;;;;;;;6.00;5.40;;;13.00;99.90;;;;;;488407;242;28131;-69
2021/08/29 04:56:30;;;;;;;7.00;5.30;;;13.10;99.90;;;;;;488361;242;29284;-70
2021/08/29 04:58:32;;;;;;;6.60;5.80;;;13.10;99.90;;;;;;488310;242;28875;-69
2021/08/29 05:00:33;;;;;;;6.20;5.60;;;13.00;99.90;;;;;;488360;243;28937;-69
2021/08/29 05:02:34;;;;;;;8.07;6.33;;;13.10;99.90;;;;;;488273;242;28535;-69
2021/08/29 05:04:35;;;;;;;7.10;6.17;;;13.10;99.90;;;;;;488384;242;28285;-69
2021/08/29 05:06:37;;;;;;;6.00;5.20;;;13.10;99.90;;;;;;488365;242;28915;-70
2021/08/29 05:08:38;;;;;;;6.87;6.03;;;13.10;99.90;;;;;;488345;242;28479;-69
2021/08/29 05:10:39;;;;;;;6.33;5.37;;;13.10;99.90;;;;;;488321;243;27992;-70
2021/08/29 05:12:40;;;;;;;5.67;5.07;;;13.10;99.90;;;;;;488352;242;28106;-69
2021/08/29 05:14:42;;;;;;;6.50;5.90;;;13.10;99.90;;;;;;488394;242;28748;-69
2021/08/29 05:16:43;;;;;;;6.87;6.20;;;13.10;99.90;;;;;;488376;242;28364;-69
2021/08/29 05:18:44;;;;;;;7.80;7.00;;;13.00;99.90;;;;;;488338;242;28820;-69
2021/08/29 05:20:45;;;;;;;6.63;5.90;;;13.00;99.90;;;;;;488373;242;28676;-69
2021/08/29 05:22:47;;;;;;;6.20;5.60;;;13.10;99.90;;;;;;488387;243;28907;-69
2021/08/29 05:24:48;;;;;;;6.33;5.73;;;13.10;99.90;;;;;;488414;242;28706;-69
2021/08/29 05:26:49;;;;;;;6.10;5.33;;;13.10;99.90;;;;;;488389;242;28164;-69
2021/08/29 05:28:50;;;;;;;6.90;5.90;;;13.10;99.90;;;;;;488332;242;28804;-69
2021/08/29 05:30:52;;;;;;;6.33;5.73;;;13.10;99.90;;;;;;488373;242;28749;-69
2021/08/29 05:32:53;;;;;;;7.73;6.50;;;13.10;99.90;;;;;;488422;242;28262;-69
2021/08/29 05:34:54;;;;;;;6.13;5.53;;;13.10;99.90;;;;;;488397;243;28787;-69
2021/08/29 05:36:55;;;;;;;5.30;4.80;;;13.10;99.90;;;;;;488373;242;28744;-69
2021/08/29 05:38:57;;;;;;;5.97;5.37;;;13.10;99.90;;;;;;488311;242;28727;-69
2021/08/29 05:40:58;;;;;;;5.83;5.23;;;13.20;99.90;;;;;;488379;242;29208;-69
2021/08/29 05:42:59;;;;;;;5.70;5.20;;;13.20;99.90;;;;;;488387;242;28905;-69
2021/08/29 05:45:00;;;;;;;7.60;5.60;;;13.20;99.90;;;;;;488402;242;28758;-69
2021/08/29 05:47:02;;;;;;;6.00;5.40;;;13.10;99.90;;;;;;488407;242;28982;-69
2021/08/29 05:49:03;;;;;;;5.67;5.07;;;13.10;99.90;;;;;;488325;242;28443;-70
2021/08/29 05:51:04;;;;;;;5.53;5.03;;;13.10;99.90;;;;;;488383;243;28847;-69
2021/08/29 05:53:05;;;;;;;5.50;5.00;;;13.10;99.90;;;;;;488393;242;28211;-69
2021/08/29 05:55:07;;;;;;;5.30;4.80;;;13.10;99.90;;;;;;488328;242;28715;-69
2021/08/29 05:57:08;;;;;;;5.10;4.57;;;13.20;99.90;;;;;;488418;242;28490;-69
2021/08/29 05:59:09;;;;;;;5.30;4.60;;;13.20;99.90;;;;;;488357;243;28759;-69
2021/08/29 06:01:10;;;;;;;5.30;4.80;;;13.10;99.90;;;;;;488307;242;28125;-69
2021/08/29 06:03:13;;;;;;;5.60;5.10;;;13.10;99.90;;;;;;488376;242;29160;-69
2021/08/29 06:05:14;;;;;;;5.93;5.33;;;13.10;99.90;;;;;;488318;242;28747;-70
2021/08/29 06:07:17;;;;;;;5.87;5.13;;;;;;;;;;488348;242;28531;-69
2021/08/29 06:09:18;;;;;;;4.77;4.37;;;13.10;99.90;;;;;;488405;243;26614;-71
2021/08/29 06:11:19;;;;;;;4.53;4.13;;;13.10;99.90;;;;;;488305;243;28336;-71
2021/08/29 06:13:20;;;;;;;5.20;4.70;;;13.10;99.90;;;;;;488368;242;28446;-68
2021/08/29 06:15:22;;;;;;;5.10;4.60;;;13.10;99.90;;;;;;488303;243;28214;-71
2021/08/29 06:17:23;;;;;;;4.80;4.30;;;13.10;99.90;;;;;;488336;242;28793;-68
2021/08/29 06:19:24;;;;;;;5.87;4.50;;;13.10;99.90;;;;;;488408;243;28121;-71
2021/08/29 06:21:27;;;;;;;5.03;4.50;;;;;;;;;;488331;242;28550;-68
2021/08/29 06:23:28;;;;;;;4.93;4.07;;;13.10;99.90;;;;;;488343;243;26482;-68
2021/08/29 06:25:29;;;;;;;4.47;4.07;;;13.10;99.90;;;;;;488270;242;28232;-68
2021/08/29 06:27:30;;;;;;;8.50;4.40;;;13.10;99.90;;;;;;488398;242;28674;-68
2021/08/29 06:29:31;;;;;;;5.30;4.90;;;13.10;99.90;;;;;;488380;242;28436;-68
2021/08/29 06:31:33;;;;;;;4.57;4.17;;;13.10;99.90;;;;;;488329;243;28751;-68
2021/08/29 06:33:34;;;;;;;5.00;4.60;;;13.10;99.90;;;;;;488331;242;29243;-68
2021/08/29 06:35:35;;;;;;;5.03;4.63;;;13.10;99.90;;;;;;488398;242;28685;-69
2021/08/29 06:37:38;;;;;;;5.00;4.50;;;;;;;;;;488323;242;28960;-71
2021/08/29 06:39:39;;;;;;;5.80;5.13;;;13.10;99.90;;;;;;488358;243;27337;-68
2021/08/29 06:41:40;;;;;;;4.63;4.23;;;13.20;99.90;;;;;;488307;243;28742;-69
2021/08/29 06:43:41;;;;;;;4.70;4.30;;;13.20;99.90;;;;;;488378;242;28401;-68
2021/08/29 06:45:43;;;;;;;5.27;4.77;;;13.20;99.90;;;;;;488383;242;28820;-69
2021/08/29 06:47:44;;;;;;;4.60;4.20;;;13.20;99.90;;;;;;488347;243;29176;-69
2021/08/29 06:49:45;;;;;;;5.23;4.73;;;13.20;99.90;;;;;;488382;242;29064;-69
2021/08/29 06:51:46;;;;;;;5.30;4.63;;;13.30;99.90;;;;;;488331;242;28255;-69
2021/08/29 06:53:48;;;;;;;6.10;5.30;;;13.30;99.90;;;;;;488395;242;28074;-69
2021/08/29 06:55:49;;;;;;;6.00;5.43;;;13.30;99.90;;;;;;488431;242;28122;-69
2021/08/29 06:57:50;;;;;;;5.20;4.70;;;13.30;99.90;;;;;;488373;242;28094;-71
2021/08/29 06:59:52;;;;;;;5.80;4.47;;;13.40;99.90;;;;;;488392;242;28254;-69
2021/08/29 07:01:53;;;;;;;5.00;4.43;;;13.30;99.90;;;;;;488376;242;28199;-69
2021/08/29 07:03:54;;;;;;;6.67;5.40;;;13.30;99.90;;;;;;488391;243;28094;-70
2021/08/29 07:05:55;;;;;;;5.77;5.07;;;13.30;99.90;;;;;;488406;242;28259;-69
2021/08/29 07:07:56;;;;;;;5.60;5.10;;;13.30;99.90;;;;;;488333;242;28078;-69
2021/08/29 07:09:58;;;;;;;6.27;5.20;;;13.20;99.90;;;;;;488395;242;28682;-69
2021/08/29 07:11:59;;;;;;;6.00;5.40;;;13.20;99.90;;;;;;488465;242;28707;-69
2021/08/29 07:14:00;;;;;;;5.43;4.93;;;13.20;99.90;;;;;;488399;243;28215;-69
2021/08/29 07:16:02;;;;;;;5.53;4.93;;;13.30;99.90;;;;;;488409;242;28756;-69
2021/08/29 07:18:04;;;;;;;6.20;5.60;;;;;;;;;;488340;242;28712;-69
2021/08/29 07:20:05;;;;;;;5.97;5.23;;;13.30;99.90;;;;;;488466;243;26531;-69
2021/08/29 07:22:06;;;;;;;6.47;5.83;;;13.30;99.90;;;;;;488352;242;28177;-69
2021/08/29 07:24:08;;;;;;;7.60;6.40;;;13.20;99.90;;;;;;488300;242;28484;-69
2021/08/29 07:26:13;;;;;;;7.00;5.57;;;13.20;99.90;;;;;;488337;242;28398;-69
2021/08/29 07:28:10;;;;;;;7.57;6.20;;;13.30;99.90;;;;;;487926;243;28784;-70
2021/08/29 07:30:11;;;;;;;6.37;5.47;;;13.30;99.90;;;;;;488364;242;28780;-70
2021/08/29 07:32:14;;;;;;;7.40;6.60;;;;;;;;;;488358;242;28318;-69
2021/08/29 07:34:15;;;;;;;6.50;5.60;;;13.40;99.90;;;;;;488255;243;26368;-69
2021/08/29 07:36:16;;;;;;;7.37;5.50;;;13.40;99.90;;;;;;488337;242;28067;-69
2021/08/29 07:38:18;;;;;;;5.90;5.30;;;13.40;99.90;;;;;;488372;242;28358;-69
2021/08/29 07:40:19;;;;;;;6.10;5.50;;;13.50;99.90;;;;;;488319;242;28709;-68
2021/08/29 07:42:20;;;;;;;5.60;5.10;;;13.50;99.90;;;;;;488384;242;28752;-70
2021/08/29 07:44:21;;;;;;;5.90;5.30;;;13.50;99.90;;;;;;488318;243;28195;-69
2021/08/29 07:46:26;;;;;;;6.07;5.17;;;13.50;99.90;;;;;;488450;242;28541;-69
2021/08/29 07:48:24;;;;;;;7.87;5.40;;;13.50;99.90;;;;;;488068;243;28726;-69
2021/08/29 07:50:25;;;;;;;6.10;5.50;;;13.50;99.90;;;;;;488317;242;28570;-69
2021/08/29 07:52:28;;;;;;;5.93;5.33;;;;;;;;;;488335;242;28821;-70
2021/08/29 07:54:29;;;;;;;5.63;5.13;;;13.50;99.90;;;;;;488402;243;27007;-69
2021/08/29 07:56:30;;;;;;;7.73;6.10;;;13.50;99.90;;;;;;488334;242;28240;-69
2021/08/29 07:58:31;;;;;;;5.83;5.23;;;13.50;99.90;;;;;;488374;242;28542;-68
2021/08/29 08:00:33;;;;;;;6.13;5.40;;;13.50;99.90;;;;;;488264;242;28618;-69
2021/08/29 08:02:34;;;;;;;5.90;5.33;;;13.50;99.90;;;;;;488370;242;28881;-69
2021/08/29 08:04:35;;;;;;;6.10;5.50;;;13.50;99.90;;;;;;488393;242;28620;-70
2021/08/29 08:06:36;;;;;;;5.53;5.00;;;13.50;99.90;;;;;;488312;242;28249;-70
2021/08/29 08:08:38;;;;;;;6.43;5.70;;;13.60;99.90;;;;;;488350;242;28074;-72
2021/08/29 08:10:39;;;;;;;7.90;5.93;;;13.60;99.90;;;;;;488299;243;28255;-69
2021/08/29 08:12:41;;;;;;;6.60;5.70;;;13.50;99.90;;;;;;488373;242;28255;-70
2021/08/29 08:14:44;;;;;;;12.10;6.60;;;;;;;;;;488380;242;28340;-69
2021/08/29 08:16:45;;;;;;;6.90;5.77;;;13.50;99.90;;;;;;488301;243;26497;-69
2021/08/29 08:18:46;;;;;;;7.47;6.23;;;13.50;99.90;;;;;;488306;242;28129;-69
2021/08/29 08:20:47;;;;;;;6.83;5.90;;;13.40;99.90;;;;;;488410;242;28174;-71
2021/08/29 08:22:49;;;;;;;6.60;5.07;;;13.50;99.90;;;;;;488342;242;28274;-71
2021/08/29 08:24:50;;;;;;;7.30;6.37;;;13.50;99.90;;;;;;488172;242;28317;-71
2021/08/29 08:26:51;;;;;;;9.40;7.27;;;13.50;99.90;;;;;;488368;242;28113;-71
2021/08/29 08:28:52;;;;;;;9.97;8.20;;;13.50;99.90;;;;;;488368;242;28660;-70
2021/08/29 08:30:54;;;;;;;8.80;7.60;;;13.50;99.90;;;;;;488419;242;28182;-70
2021/08/29 08:32:55;;;;;;;7.37;6.67;;;13.50;99.90;;;;;;488366;242;28682;-69
2021/08/29 08:34:56;;;;;;;6.87;6.17;;;13.50;99.90;;;;;;488185;242;28571;-70
2021/08/29 08:36:57;;;;;;;9.10;7.60;;;13.70;99.90;;;;;;488383;242;28691;-69
2021/08/29 08:39:00;;;;;;;9.50;7.80;;;13.60;99.90;;;;;;488386;242;28864;-69
2021/08/29 08:41:00;;;;;;;8.57;7.17;;;13.70;99.90;;;;;;488345;242;28324;-70
2021/08/29 08:43:01;;;;;;;9.53;7.27;;;13.80;99.90;;;;;;488378;242;28110;-70
2021/08/29 08:45:02;;;;;;;10.60;8.30;;;13.90;99.90;;;;;;488289;242;28672;-69
2021/08/29 08:47:04;;;;;;;9.83;7.73;;;13.90;99.90;;;;;;488358;243;28688;-69
2021/08/29 08:49:05;;;;;;;11.00;8.37;;;13.90;99.90;;;;;;488416;242;28889;-70
2021/08/29 08:51:06;;;;;;;11.20;8.80;;;13.80;99.90;;;;;;488335;243;28166;-71
2021/08/29 08:53:07;;;;;;;10.50;8.40;;;13.80;99.90;;;;;;488305;242;28346;-70
2021/08/29 08:55:09;;;;;;;8.53;7.47;;;13.90;99.90;;;;;;488268;243;28303;-68
2021/08/29 08:57:10;;;;;;;14.20;8.50;;;13.90;99.90;;;;;;488383;242;28462;-69
2021/08/29 08:59:11;;;;;;;10.30;8.00;;;13.70;99.90;;;;;;488420;242;28753;-69
2021/08/29 09:01:12;;;;;;;10.50;8.27;;;13.80;99.90;;;;;;488301;242;28097;-69
2021/08/29 09:03:14;;;;;;;10.50;7.80;;;13.90;99.90;;;;;;488302;242;28531;-71
2021/08/29 09:05:15;;;;;;;8.37;7.47;;;13.90;99.90;;;;;;488221;242;29522;-71
2021/08/29 09:07:17;;;;;;;10.10;8.00;;;;;;;;;;488315;242;28644;-70
2021/08/29 09:09:19;;;;;;;7.00;6.20;;;14.00;99.90;;;;;;488311;243;26607;-71
2021/08/29 09:11:20;;;;;;;7.97;7.13;;;14.00;99.90;;;;;;488227;243;28256;-71
2021/08/29 09:13:21;;;;;;;8.13;6.90;;;14.00;99.90;;;;;;488323;242;28493;-71
2021/08/29 09:15:22;;;;;;;7.97;7.10;;;14.10;99.90;;;;;;489111;236;28998;-70
2021/08/29 09:17:24;;;;;;;11.80;7.83;;;14.00;99.90;;;;;;494072;240;28887;-69
2021/08/29 09:19:25;;;;;;;8.90;7.50;;;13.90;99.90;;;;;;494185;240;28953;-69
2021/08/29 09:21:26;;;;;;;9.20;7.33;;;13.90;99.90;;;;;;494190;240;28446;-69
2021/08/29 09:23:27;;;;;;;8.53;6.90;;;13.90;99.90;;;;;;494086;240;28108;-69
2021/08/29 09:25:29;;;;;;;7.77;6.93;;;14.00;99.90;;;;;;494235;240;28200;-69
2021/08/29 09:27:30;;;;;;;7.30;6.60;;;14.00;99.90;;;;;;494208;240;28326;-69
2021/08/29 09:29:31;;;;;;;7.30;6.50;;;14.00;99.90;;;;;;494227;240;28282;-70
2021/08/29 09:31:32;;;;;;;10.13;6.90;;;14.00;99.90;;;;;;494201;240;28255;-71
2021/08/29 09:33:34;;;;;;;9.10;6.97;;;14.00;99.90;;;;;;494160;240;28464;-72
2021/08/29 09:35:35;;;;;;;7.83;6.50;;;13.90;99.90;;;;;;494193;240;28209;-70
2021/08/29 09:37:36;;;;;;;6.87;6.03;;;14.00;99.90;;;;;;494199;240;28436;-69
2021/08/29 09:39:37;;;;;;;8.20;7.13;;;14.00;99.90;;;;;;494149;240;28916;-69
2021/08/29 09:41:39;;;;;;;7.80;7.00;;;14.00;99.90;;;;;;494212;240;29311;-70
2021/08/29 09:43:40;;;;;;;7.87;6.97;;;14.10;99.90;;;;;;494197;240;28914;-70
2021/08/29 09:45:41;;;;;;;6.50;5.77;;;13.90;99.90;;;;;;494180;240;28207;-69
2021/08/29 09:47:42;;;;;;;7.73;6.93;;;13.90;99.90;;;;;;494189;240;28095;-71
2021/08/29 09:49:44;;;;;;;9.50;6.23;;;14.00;99.90;;;;;;494125;240;28178;-71
2021/08/29 09:51:45;;;;;;;8.63;6.60;;;14.00;99.90;;;;;;494208;240;28064;-71
2021/08/29 09:53:46;;;;;;;7.30;6.50;;;14.00;99.90;;;;;;494195;240;28311;-71
2021/08/29 09:55:47;;;;;;;8.07;7.00;;;13.90;99.90;;;;;;494155;240;28882;-71
2021/08/29 09:57:50;;;;;;;7.40;6.17;;;;;;;;;;494184;240;28288;-70
2021/08/29 09:59:51;;;;;;;7.60;6.10;;;14.00;99.90;;;;;;485517;245;26615;-71
2021/08/29 10:01:52;;;;;;;8.23;6.33;;;14.00;99.90;;;;;;489188;243;28199;-69
2021/08/29 10:03:54;;;;;;;9.50;6.33;;;14.00;99.90;;;;;;489218;243;28496;-69
2021/08/29 10:05:56;;;;;;;9.10;6.93;;;;;;;;;;489131;243;28470;-69
2021/08/29 10:07:57;;;;;;;7.37;6.50;;;14.00;99.90;;;;;;485566;244;26926;-69
2021/08/29 10:09:58;;;;;;;7.13;6.10;;;14.00;99.90;;;;;;489214;243;28219;-69
2021/08/29 10:12:00;;;;;;;7.33;6.47;;;14.00;99.90;;;;;;488926;243;28425;-69
2021/08/29 10:14:02;;;;;;;7.80;6.77;;;;;;;;;;488696;243;28336;-69
2021/08/29 10:16:03;;;;;;;7.60;5.83;;;14.00;99.90;;;;;;485018;244;26653;-69
2021/08/29 10:18:05;;;;;;;6.93;6.13;;;14.00;99.90;;;;;;488577;243;28896;-70
2021/08/29 10:20:06;;;;;;;6.87;6.00;;;14.00;99.90;;;;;;488861;243;29133;-69
2021/08/29 10:22:07;;;;;;;6.50;5.87;;;14.00;99.90;;;;;;488801;243;28595;-69
2021/08/29 10:24:09;;;;;;;5.77;5.00;;;14.10;99.90;;;;;;488944;243;28353;-70
2021/08/29 10:26:10;;;;;;;6.20;5.60;;;14.10;99.90;;;;;;488911;243;28690;-69
2021/08/29 10:28:12;;;;;;;6.30;5.57;;;14.20;99.90;;;;;;488931;243;28431;-71
2021/08/29 10:30:13;;;;;;;5.50;5.00;;;14.20;99.90;;;;;;488971;243;28717;-69
2021/08/29 10:32:14;;;;;;;7.13;5.53;;;14.10;99.90;;;;;;488885;243;29059;-69
2021/08/29 10:34:15;;;;;;;6.20;5.63;;;14.10;99.90;;;;;;489109;243;28785;-69
2021/08/29 10:36:17;;;;;;;7.73;5.60;;;14.10;99.90;;;;;;489158;243;28486;-70